sensor_id;sensor_type;location;lat;lon;timestamp;temperature;humidity
3055;DHT22;1537;52.018;8.542;2023-11-22T00:03:16;3.70;99.90
3055;DHT22;1537;52.018;8.542;2023-11-22T00:06:44;3.60;99.90
3055;DHT22;1537;52.018;8.542;2023-11-22T00:10:09;3.60;99.90
3055;DHT22;1537;52.018;8.542;2023-11-22T00:13:32;3.50;99.90
3055;DHT22;1537;52.018;8.542;2023-11-22T00:16:57;3.50;99.90
3055;DHT22;1537;52.018;8.542;2023-11-22T00:20:21;3.50;99.90
3055;DHT22;1537;52.018;8.542;2023-11-22T00:23:49;3.50;99.90
3055;DHT22;1537;52.018;8.542;2023-11-22T00:27:14;3.50;99.90
3055;DHT22;1537;52.018;8.542;2023-11-22T00:30:40;3.50;99.90
3055;DHT22;1537;52.018;8.542;2023-11-22T00:34:05;3.40;99.90
3055;DHT22;1537;52.018;8.542;2023-11-22T00:37:30;3.40;99.90
3055;DHT22;1537;52.018;8.542;2023-11-22T00:40:55;3.30;99.90
3055;DHT22;1537;52.018;8.542;2023-11-22T00:44:20;3.30;99.90
3055;DHT22;1537;52.018;8.542;2023-11-22T00:47:45;3.40;99.90
3055;DHT22;1537;52.018;8.542;2023-11-22T00:51:10;3.30;99.90
3055;DHT22;1537;52.018;8.542;2023-11-22T00:54:35;3.30;99.90
3055;DHT22;1537;52.018;8.542;2023-11-22T00:58:01;3.30;99.90
3055;DHT22;1537;52.018;8.542;2023-11-22T01:01:26;3.20;99.90
3055;DHT22;1537;52.018;8.542;2023-11-22T01:04:52;3.30;99.90
3055;DHT22;1537;52.018;8.542;2023-11-22T01:08:17;3.30;99.90
3055;DHT22;1537;52.018;8.542;2023-11-22T01:11:41;3.30;99.90
3055;DHT22;1537;52.018;8.542;2023-11-22T01:15:10;3.20;99.90
3055;DHT22;1537;52.018;8.542;2023-11-22T01:18:33;3.20;99.90
3055;DHT22;1537;52.018;8.542;2023-11-22T01:22:00;3.20;99.90
3055;DHT22;1537;52.018;8.542;2023-11-22T01:25:24;3.20;99.90
3055;DHT22;1537;52.018;8.542;2023-11-22T01:28:48;3.20;99.90
3055;DHT22;1537;52.018;8.542;2023-11-22T01:32:13;3.20;99.90
3055;DHT22;1537;52.018;8.542;2023-11-22T01:35:39;3.20;99.90
3055;DHT22;1537;52.018;8.542;2023-11-22T01:39:04;3.10;99.90
3055;DHT22;1537;52.018;8.542;2023-11-22T01:42:29;3.10;99.90
3055;DHT22;1537;52.018;8.542;2023-11-22T01:45:54;3.10;99.90
3055;DHT22;1537;52.018;8.542;2023-11-22T01:49:20;3.10;99.90
3055;DHT22;1537;52.018;8.542;2023-11-22T01:52:45;3.00;99.90
3055;DHT22;1537;52.018;8.542;2023-11-22T01:56:10;3.00;99.90
3055;DHT22;1537;52.018;8.542;2023-11-22T01:59:34;2.90;99.90
3055;DHT22;1537;52.018;8.542;2023-11-22T02:02:59;2.90;99.90
3055;DHT22;1537;52.018;8.542;2023-11-22T02:06:25;2.90;99.90
3055;DHT22;1537;52.018;8.542;2023-11-22T02:09:49;2.90;99.90
3055;DHT22;1537;52.018;8.542;2023-11-22T02:13:15;2.90;99.90
3055;DHT22;1537;52.018;8.542;2023-11-22T02:16:39;2.80;99.90
3055;DHT22;1537;52.018;8.542;2023-11-22T02:20:05;2.80;99.90
3055;DHT22;1537;52.018;8.542;2023-11-22T02:23:33;2.80;99.90
3055;DHT22;1537;52.018;8.542;2023-11-22T02:26:58;2.70;99.90
3055;DHT22;1537;52.018;8.542;2023-11-22T02:30:22;2.60;99.90
3055;DHT22;1537;52.018;8.542;2023-11-22T02:33:47;2.60;99.90
3055;DHT22;1537;52.018;8.542;2023-11-22T02:37:11;2.60;99.90
3055;DHT22;1537;52.018;8.542;2023-11-22T02:40:40;2.60;99.90
3055;DHT22;1537;52.018;8.542;2023-11-22T02:44:04;2.60;99.90
3055;DHT22;1537;52.018;8.542;2023-11-22T02:47:30;2.50;99.90
3055;DHT22;1537;52.018;8.542;2023-11-22T02:50:54;2.50;99.90
3055;DHT22;1537;52.018;8.542;2023-11-22T02:54:18;2.40;99.90
3055;DHT22;1537;52.018;8.542;2023-11-22T02:57:43;2.40;99.90
3055;DHT22;1537;52.018;8.542;2023-11-22T03:01:08;2.40;99.90
3055;DHT22;1537;52.018;8.542;2023-11-22T03:04:32;2.40;99.90
3055;DHT22;1537;52.018;8.542;2023-11-22T03:07:57;2.40;99.90
3055;DHT22;1537;52.018;8.542;2023-11-22T03:11:21;2.40;99.90
3055;DHT22;1537;52.018;8.542;2023-11-22T03:14:47;2.30;99.90
3055;DHT22;1537;52.018;8.542;2023-11-22T03:18:11;2.30;99.90
3055;DHT22;1537;52.018;8.542;2023-11-22T03:21:35;2.30;99.90
3055;DHT22;1537;52.018;8.542;2023-11-22T03:24:59;2.30;99.90
3055;DHT22;1537;52.018;8.542;2023-11-22T03:28:23;2.30;99.90
3055;DHT22;1537;52.018;8.542;2023-11-22T03:31:48;2.30;99.90
3055;DHT22;1537;52.018;8.542;2023-11-22T03:35:13;2.30;99.90
3055;DHT22;1537;52.018;8.542;2023-11-22T03:38:37;2.30;99.90
3055;DHT22;1537;52.018;8.542;2023-11-22T03:42:05;2.30;99.90
3055;DHT22;1537;52.018;8.542;2023-11-22T03:45:30;2.20;99.90
3055;DHT22;1537;52.018;8.542;2023-11-22T03:48:56;2.20;99.90
3055;DHT22;1537;52.018;8.542;2023-11-22T03:52:21;2.20;99.90
3055;DHT22;1537;52.018;8.542;2023-11-22T03:55:48;2.10;99.90
3055;DHT22;1537;52.018;8.542;2023-11-22T03:59:13;2.20;99.90
3055;DHT22;1537;52.018;8.542;2023-11-22T04:02:37;2.10;99.90
3055;DHT22;1537;52.018;8.542;2023-11-22T04:06:03;2.10;99.90
3055;DHT22;1537;52.018;8.542;2023-11-22T04:09:28;2.10;99.90
3055;DHT22;1537;52.018;8.542;2023-11-22T04:12:53;2.10;99.90
3055;DHT22;1537;52.018;8.542;2023-11-22T04:16:17;2.20;99.90
3055;DHT22;1537;52.018;8.542;2023-11-22T04:19:42;2.10;99.90
3055;DHT22;1537;52.018;8.542;2023-11-22T04:23:08;2.10;99.90
3055;DHT22;1537;52.018;8.542;2023-11-22T04:26:33;2.10;99.90
3055;DHT22;1537;52.018;8.542;2023-11-22T04:29:57;2.00;99.90
3055;DHT22;1537;52.018;8.542;2023-11-22T04:33:21;2.00;99.90
3055;DHT22;1537;52.018;8.542;2023-11-22T04:36:45;2.00;99.90
3055;DHT22;1537;52.018;8.542;2023-11-22T04:40:11;1.90;99.90
3055;DHT22;1537;52.018;8.542;2023-11-22T04:43:37;1.90;99.90
3055;DHT22;1537;52.018;8.542;2023-11-22T04:47:01;1.90;99.90
3055;DHT22;1537;52.018;8.542;2023-11-22T04:50:25;1.90;99.90
3055;DHT22;1537;52.018;8.542;2023-11-22T04:53:49;1.90;99.90
3055;DHT22;1537;52.018;8.542;2023-11-22T04:57:15;1.90;99.90
3055;DHT22;1537;52.018;8.542;2023-11-22T05:00:39;1.90;99.90
3055;DHT22;1537;52.018;8.542;2023-11-22T05:04:03;1.90;99.90
3055;DHT22;1537;52.018;8.542;2023-11-22T05:07:28;2.00;99.90
3055;DHT22;1537;52.018;8.542;2023-11-22T05:10:52;1.90;99.90
3055;DHT22;1537;52.018;8.542;2023-11-22T05:14:19;1.90;99.90
3055;DHT22;1537;52.018;8.542;2023-11-22T05:17:47;1.90;99.90
3055;DHT22;1537;52.018;8.542;2023-11-22T05:21:11;1.90;99.90
3055;DHT22;1537;52.018;8.542;2023-11-22T05:24:35;1.80;99.90
3055;DHT22;1537;52.018;8.542;2023-11-22T05:28:01;1.80;99.90
3055;DHT22;1537;52.018;8.542;2023-11-22T05:31:30;1.80;99.90
3055;DHT22;1537;52.018;8.542;2023-11-22T05:34:54;1.80;99.90
3055;DHT22;1537;52.018;8.542;2023-11-22T05:38:18;1.80;99.90
3055;DHT22;1537;52.018;8.542;2023-11-22T05:41:42;1.70;99.90
3055;DHT22;1537;52.018;8.542;2023-11-22T05:45:08;1.70;99.90
3055;DHT22;1537;52.018;8.542;2023-11-22T05:48:34;1.70;99.90
3055;DHT22;1537;52.018;8.542;2023-11-22T05:51:58;1.70;99.90
3055;DHT22;1537;52.018;8.542;2023-11-22T05:55:22;1.70;99.90
3055;DHT22;1537;52.018;8.542;2023-11-22T05:58:46;1.70;99.90
3055;DHT22;1537;52.018;8.542;2023-11-22T06:02:11;1.70;99.90
3055;DHT22;1537;52.018;8.542;2023-11-22T06:05:37;1.70;99.90
3055;DHT22;1537;52.018;8.542;2023-11-22T06:09:02;1.60;99.90
3055;DHT22;1537;52.018;8.542;2023-11-22T06:12:27;1.60;99.90
3055;DHT22;1537;52.018;8.542;2023-11-22T06:15:52;1.60;99.90
3055;DHT22;1537;52.018;8.542;2023-11-22T06:19:16;1.60;99.90
3055;DHT22;1537;52.018;8.542;2023-11-22T06:22:41;1.60;99.90
3055;DHT22;1537;52.018;8.542;2023-11-22T06:26:05;1.50;99.90
3055;DHT22;1537;52.018;8.542;2023-11-22T06:29:30;1.50;99.90
3055;DHT22;1537;52.018;8.542;2023-11-22T06:32:54;1.50;99.90
3055;DHT22;1537;52.018;8.542;2023-11-22T06:36:18;1.50;99.90
3055;DHT22;1537;52.018;8.542;2023-11-22T06:39:43;1.50;99.90
3055;DHT22;1537;52.018;8.542;2023-11-22T06:43:09;1.50;99.90
3055;DHT22;1537;52.018;8.542;2023-11-22T06:46:34;1.50;99.90
3055;DHT22;1537;52.018;8.542;2023-11-22T06:49:58;1.50;99.90
3055;DHT22;1537;52.018;8.542;2023-11-22T06:53:26;1.50;99.90
3055;DHT22;1537;52.018;8.542;2023-11-22T06:56:51;1.50;99.90
3055;DHT22;1537;52.018;8.542;2023-11-22T07:00:17;1.60;99.90
3055;DHT22;1537;52.018;8.542;2023-11-22T07:03:43;1.60;99.90
3055;DHT22;1537;52.018;8.542;2023-11-22T07:07:07;1.60;99.90
3055;DHT22;1537;52.018;8.542;2023-11-22T07:10:34;1.60;99.90
3055;DHT22;1537;52.018;8.542;2023-11-22T07:14:03;1.70;99.90
3055;DHT22;1537;52.018;8.542;2023-11-22T07:17:27;1.80;99.90
3055;DHT22;1537;52.018;8.542;2023-11-22T07:20:51;1.70;99.90
3055;DHT22;1537;52.018;8.542;2023-11-22T07:24:16;1.70;99.90
3055;DHT22;1537;52.018;8.542;2023-11-22T07:27:42;1.80;99.90
3055;DHT22;1537;52.018;8.542;2023-11-22T07:31:08;1.80;99.90
3055;DHT22;1537;52.018;8.542;2023-11-22T07:34:32;1.80;99.90
3055;DHT22;1537;52.018;8.542;2023-11-22T07:37:56;1.80;99.90
3055;DHT22;1537;52.018;8.542;2023-11-22T07:41:20;1.90;99.90
3055;DHT22;1537;52.018;8.542;2023-11-22T07:44:44;2.10;99.90
3055;DHT22;1537;52.018;8.542;2023-11-22T07:48:10;2.20;99.90
3055;DHT22;1537;52.018;8.542;2023-11-22T07:51:36;2.40;99.90
3055;DHT22;1537;52.018;8.542;2023-11-22T07:55:00;2.50;99.90
3055;DHT22;1537;52.018;8.542;2023-11-22T07:58:24;2.70;99.90
3055;DHT22;1537;52.018;8.542;2023-11-22T08:01:48;3.20;99.90
3055;DHT22;1537;52.018;8.542;2023-11-22T08:05:13;4.00;99.90
3055;DHT22;1537;52.018;8.542;2023-11-22T08:08:37;4.90;99.90
3055;DHT22;1537;52.018;8.542;2023-11-22T08:12:02;5.40;99.90
3055;DHT22;1537;52.018;8.542;2023-11-22T08:15:28;6.20;99.90
3055;DHT22;1537;52.018;8.542;2023-11-22T08:18:54;7.00;99.90
3055;DHT22;1537;52.018;8.542;2023-11-22T08:22:20;7.70;99.90
3055;DHT22;1537;52.018;8.542;2023-11-22T08:25:44;8.70;99.90
3055;DHT22;1537;52.018;8.542;2023-11-22T08:29:10;9.90;99.90
3055;DHT22;1537;52.018;8.542;2023-11-22T08:32:34;10.50;99.90
3055;DHT22;1537;52.018;8.542;2023-11-22T08:35:58;10.90;99.90
3055;DHT22;1537;52.018;8.542;2023-11-22T08:39:24;11.10;99.90
3055;DHT22;1537;52.018;8.542;2023-11-22T08:42:48;11.00;99.90
3055;DHT22;1537;52.018;8.542;2023-11-22T08:46:12;10.70;99.90
3055;DHT22;1537;52.018;8.542;2023-11-22T08:49:37;10.70;99.90
3055;DHT22;1537;52.018;8.542;2023-11-22T08:53:01;10.00;99.90
3055;DHT22;1537;52.018;8.542;2023-11-22T08:56:29;9.40;99.90
3055;DHT22;1537;52.018;8.542;2023-11-22T08:59:53;8.30;99.90
3055;DHT22;1537;52.018;8.542;2023-11-22T09:03:17;7.10;99.90
3055;DHT22;1537;52.018;8.542;2023-11-22T09:06:41;6.60;99.90
3055;DHT22;1537;52.018;8.542;2023-11-22T09:10:06;6.30;99.90
3055;DHT22;1537;52.018;8.542;2023-11-22T09:13:36;6.40;99.90
3055;DHT22;1537;52.018;8.542;2023-11-22T09:17:00;6.60;99.90
3055;DHT22;1537;52.018;8.542;2023-11-22T09:20:27;6.10;99.90
3055;DHT22;1537;52.018;8.542;2023-11-22T09:23:51;6.10;99.90
3055;DHT22;1537;52.018;8.542;2023-11-22T09:27:15;6.10;99.90
3055;DHT22;1537;52.018;8.542;2023-11-22T09:30:41;6.30;99.90
3055;DHT22;1537;52.018;8.542;2023-11-22T09:34:06;6.00;99.90
3055;DHT22;1537;52.018;8.542;2023-11-22T09:37:29;5.70;99.90
3055;DHT22;1537;52.018;8.542;2023-11-22T09:40:56;5.90;99.90
3055;DHT22;1537;52.018;8.542;2023-11-22T09:44:22;5.80;99.90
3055;DHT22;1537;52.018;8.542;2023-11-22T09:47:47;5.80;99.90
3055;DHT22;1537;52.018;8.542;2023-11-22T09:51:19;5.90;99.90
3055;DHT22;1537;52.018;8.542;2023-11-22T09:54:46;5.90;99.90
3055;DHT22;1537;52.018;8.542;2023-11-22T09:58:12;6.10;99.90
3055;DHT22;1537;52.018;8.542;2023-11-22T10:01:36;6.30;99.90
3055;DHT22;1537;52.018;8.542;2023-11-22T10:05:03;6.00;99.90
3055;DHT22;1537;52.018;8.542;2023-11-22T10:08:27;5.60;99.90
3055;DHT22;1537;52.018;8.542;2023-11-22T10:11:52;5.50;99.90
3055;DHT22;1537;52.018;8.542;2023-11-22T10:15:17;5.30;99.90
3055;DHT22;1537;52.018;8.542;2023-11-22T10:18:42;5.50;99.90
3055;DHT22;1537;52.018;8.542;2023-11-22T10:22:08;5.60;99.90
3055;DHT22;1537;52.018;8.542;2023-11-22T10:25:32;5.70;99.90
3055;DHT22;1537;52.018;8.542;2023-11-22T10:28:57;5.70;99.90
3055;DHT22;1537;52.018;8.542;2023-11-22T10:32:21;5.80;99.90
3055;DHT22;1537;52.018;8.542;2023-11-22T10:35:46;5.90;99.90
3055;DHT22;1537;52.018;8.542;2023-11-22T10:39:12;5.90;99.90
3055;DHT22;1537;52.018;8.542;2023-11-22T10:42:40;6.00;99.90
3055;DHT22;1537;52.018;8.542;2023-11-22T10:46:05;6.30;99.90
3055;DHT22;1537;52.018;8.542;2023-11-22T10:49:32;6.40;99.90
3055;DHT22;1537;52.018;8.542;2023-11-22T10:52:57;6.20;99.90
3055;DHT22;1537;52.018;8.542;2023-11-22T10:56:25;6.20;99.90
3055;DHT22;1537;52.018;8.542;2023-11-22T10:59:54;6.20;99.90
3055;DHT22;1537;52.018;8.542;2023-11-22T11:03:18;6.20;99.90
3055;DHT22;1537;52.018;8.542;2023-11-22T11:06:44;6.00;99.90
3055;DHT22;1537;52.018;8.542;2023-11-22T11:10:10;5.90;99.90
3055;DHT22;1537;52.018;8.542;2023-11-22T11:13:46;6.00;99.90
3055;DHT22;1537;52.018;8.542;2023-11-22T11:17:11;5.90;99.90
3055;DHT22;1537;52.018;8.542;2023-11-22T11:20:45;5.60;99.90
3055;DHT22;1537;52.018;8.542;2023-11-22T11:24:10;5.50;99.90
3055;DHT22;1537;52.018;8.542;2023-11-22T11:27:35;5.30;99.90
3055;DHT22;1537;52.018;8.542;2023-11-22T11:31:00;5.40;99.90
3055;DHT22;1537;52.018;8.542;2023-11-22T11:34:24;5.50;99.90
3055;DHT22;1537;52.018;8.542;2023-11-22T11:37:59;5.40;99.90
3055;DHT22;1537;52.018;8.542;2023-11-22T11:41:26;5.20;99.90
3055;DHT22;1537;52.018;8.542;2023-11-22T11:45:11;5.20;99.90
3055;DHT22;1537;52.018;8.542;2023-11-22T11:48:36;5.30;99.90
3055;DHT22;1537;52.018;8.542;2023-11-22T11:52:00;5.10;99.90
3055;DHT22;1537;52.018;8.542;2023-11-22T11:55:26;4.90;99.90
3055;DHT22;1537;52.018;8.542;2023-11-22T11:58:50;4.70;99.90
3055;DHT22;1537;52.018;8.542;2023-11-22T12:02:15;4.90;99.90
3055;DHT22;1537;52.018;8.542;2023-11-22T12:05:41;5.10;99.90
3055;DHT22;1537;52.018;8.542;2023-11-22T12:09:05;5.20;99.90
3055;DHT22;1537;52.018;8.542;2023-11-22T12:12:31;5.10;99.90
3055;DHT22;1537;52.018;8.542;2023-11-22T12:16:00;5.10;99.90
3055;DHT22;1537;52.018;8.542;2023-11-22T12:19:28;5.00;99.90
3055;DHT22;1537;52.018;8.542;2023-11-22T12:22:55;5.20;99.90
3055;DHT22;1537;52.018;8.542;2023-11-22T12:26:20;5.30;99.90
3055;DHT22;1537;52.018;8.542;2023-11-22T12:29:46;5.30;99.90
3055;DHT22;1537;52.018;8.542;2023-11-22T12:33:10;5.30;99.90
3055;DHT22;1537;52.018;8.542;2023-11-22T12:36:35;5.30;99.90
3055;DHT22;1537;52.018;8.542;2023-11-22T12:40:09;5.30;99.90
3055;DHT22;1537;52.018;8.542;2023-11-22T12:43:33;5.30;99.90
3055;DHT22;1537;52.018;8.542;2023-11-22T12:47:09;4.90;99.90
3055;DHT22;1537;52.018;8.542;2023-11-22T12:50:34;4.80;99.90
3055;DHT22;1537;52.018;8.542;2023-11-22T12:54:01;4.90;99.90
3055;DHT22;1537;52.018;8.542;2023-11-22T12:57:26;5.00;99.90
3055;DHT22;1537;52.018;8.542;2023-11-22T13:00:51;4.90;99.90
3055;DHT22;1537;52.018;8.542;2023-11-22T13:04:20;5.10;99.90
3055;DHT22;1537;52.018;8.542;2023-11-22T13:07:44;5.30;99.90
3055;DHT22;1537;52.018;8.542;2023-11-22T13:11:08;5.30;99.90
3055;DHT22;1537;52.018;8.542;2023-11-22T13:14:33;5.30;99.90
3055;DHT22;1537;52.018;8.542;2023-11-22T13:18:01;5.30;99.90
3055;DHT22;1537;52.018;8.542;2023-11-22T13:21:25;5.30;99.90
3055;DHT22;1537;52.018;8.542;2023-11-22T13:24:49;5.40;99.90
3055;DHT22;1537;52.018;8.542;2023-11-22T13:28:12;5.40;99.90
3055;DHT22;1537;52.018;8.542;2023-11-22T13:31:40;5.50;99.90
3055;DHT22;1537;52.018;8.542;2023-11-22T13:35:05;5.50;99.90
3055;DHT22;1537;52.018;8.542;2023-11-22T13:38:34;5.50;99.90
3055;DHT22;1537;52.018;8.542;2023-11-22T13:41:59;5.50;99.90
3055;DHT22;1537;52.018;8.542;2023-11-22T13:45:31;5.50;99.90
3055;DHT22;1537;52.018;8.542;2023-11-22T13:49:01;5.60;99.90
3055;DHT22;1537;52.018;8.542;2023-11-22T13:52:25;5.50;99.90
3055;DHT22;1537;52.018;8.542;2023-11-22T13:55:52;5.50;99.90
3055;DHT22;1537;52.018;8.542;2023-11-22T13:59:21;5.60;99.90
3055;DHT22;1537;52.018;8.542;2023-11-22T14:02:45;5.60;99.90
3055;DHT22;1537;52.018;8.542;2023-11-22T14:06:12;5.50;99.90
3055;DHT22;1537;52.018;8.542;2023-11-22T14:09:44;5.40;99.90
3055;DHT22;1537;52.018;8.542;2023-11-22T14:13:10;5.30;99.90
3055;DHT22;1537;52.018;8.542;2023-11-22T14:16:35;5.20;99.90
3055;DHT22;1537;52.018;8.542;2023-11-22T14:20:05;5.30;99.90
3055;DHT22;1537;52.018;8.542;2023-11-22T14:23:49;5.30;99.90
3055;DHT22;1537;52.018;8.542;2023-11-22T14:27:14;5.20;99.90
3055;DHT22;1537;52.018;8.542;2023-11-22T14:30:41;5.10;99.90
3055;DHT22;1537;52.018;8.542;2023-11-22T14:34:05;5.00;99.90
3055;DHT22;1537;52.018;8.542;2023-11-22T14:37:37;5.10;99.90
3055;DHT22;1537;52.018;8.542;2023-11-22T14:41:03;5.10;99.90
3055;DHT22;1537;52.018;8.542;2023-11-22T14:44:31;5.00;99.90
3055;DHT22;1537;52.018;8.542;2023-11-22T14:48:02;5.00;99.90
3055;DHT22;1537;52.018;8.542;2023-11-22T14:51:29;4.90;99.90
3055;DHT22;1537;52.018;8.542;2023-11-22T14:54:55;5.00;99.90
3055;DHT22;1537;52.018;8.542;2023-11-22T14:58:25;4.90;99.90
3055;DHT22;1537;52.018;8.542;2023-11-22T15:01:59;4.80;99.90
3055;DHT22;1537;52.018;8.542;2023-11-22T15:05:33;4.70;99.90
3055;DHT22;1537;52.018;8.542;2023-11-22T15:09:00;4.60;99.90
3055;DHT22;1537;52.018;8.542;2023-11-22T15:12:26;4.60;99.90
3055;DHT22;1537;52.018;8.542;2023-11-22T15:15:57;4.50;99.90
3055;DHT22;1537;52.018;8.542;2023-11-22T15:19:21;4.40;99.90
3055;DHT22;1537;52.018;8.542;2023-11-22T15:22:51;4.40;99.90
3055;DHT22;1537;52.018;8.542;2023-11-22T15:26:16;4.50;99.90
3055;DHT22;1537;52.018;8.542;2023-11-22T15:29:45;4.50;99.90
3055;DHT22;1537;52.018;8.542;2023-11-22T15:33:11;4.50;99.90
3055;DHT22;1537;52.018;8.542;2023-11-22T15:36:35;4.50;99.90
3055;DHT22;1537;52.018;8.542;2023-11-22T15:39:59;4.50;99.90
3055;DHT22;1537;52.018;8.542;2023-11-22T15:43:24;4.60;99.90
3055;DHT22;1537;52.018;8.542;2023-11-22T15:46:49;4.60;99.90
3055;DHT22;1537;52.018;8.542;2023-11-22T15:50:15;4.50;99.90
3055;DHT22;1537;52.018;8.542;2023-11-22T15:53:40;4.40;99.90
3055;DHT22;1537;52.018;8.542;2023-11-22T15:57:04;4.30;99.90
3055;DHT22;1537;52.018;8.542;2023-11-22T16:00:28;4.40;99.90
3055;DHT22;1537;52.018;8.542;2023-11-22T16:03:52;4.30;99.90
3055;DHT22;1537;52.018;8.542;2023-11-22T16:07:18;4.30;99.90
3055;DHT22;1537;52.018;8.542;2023-11-22T16:10:43;4.20;99.90
3055;DHT22;1537;52.018;8.542;2023-11-22T16:14:07;4.20;99.90
3055;DHT22;1537;52.018;8.542;2023-11-22T16:17:31;4.20;99.90
3055;DHT22;1537;52.018;8.542;2023-11-22T16:20:58;4.20;99.90
3055;DHT22;1537;52.018;8.542;2023-11-22T16:24:24;4.20;99.90
3055;DHT22;1537;52.018;8.542;2023-11-22T16:27:47;4.20;99.90
3055;DHT22;1537;52.018;8.542;2023-11-22T16:31:11;4.20;99.90
3055;DHT22;1537;52.018;8.542;2023-11-22T16:34:37;4.10;99.90
3055;DHT22;1537;52.018;8.542;2023-11-22T16:38:01;4.10;99.90
3055;DHT22;1537;52.018;8.542;2023-11-22T16:41:27;4.10;99.90
3055;DHT22;1537;52.018;8.542;2023-11-22T16:44:51;4.10;99.90
3055;DHT22;1537;52.018;8.542;2023-11-22T16:48:14;4.10;99.90
3055;DHT22;1537;52.018;8.542;2023-11-22T16:51:38;4.10;99.90
3055;DHT22;1537;52.018;8.542;2023-11-22T16:55:04;4.10;99.90
3055;DHT22;1537;52.018;8.542;2023-11-22T16:58:30;4.10;99.90
3055;DHT22;1537;52.018;8.542;2023-11-22T17:01:54;4.10;99.90
3055;DHT22;1537;52.018;8.542;2023-11-22T17:05:18;4.10;99.90
3055;DHT22;1537;52.018;8.542;2023-11-22T17:08:42;4.10;99.90
3055;DHT22;1537;52.018;8.542;2023-11-22T17:12:06;4.00;99.90
3055;DHT22;1537;52.018;8.542;2023-11-22T17:15:31;4.10;99.90
3055;DHT22;1537;52.018;8.542;2023-11-22T17:18:55;4.10;99.90
3055;DHT22;1537;52.018;8.542;2023-11-22T17:22:19;4.10;99.90
3055;DHT22;1537;52.018;8.542;2023-11-22T17:25:42;4.10;99.90
3055;DHT22;1537;52.018;8.542;2023-11-22T17:29:06;4.10;99.90
3055;DHT22;1537;52.018;8.542;2023-11-22T17:32:31;4.00;99.90
3055;DHT22;1537;52.018;8.542;2023-11-22T17:35:55;4.00;99.90
3055;DHT22;1537;52.018;8.542;2023-11-22T17:39:19;4.00;99.90
3055;DHT22;1537;52.018;8.542;2023-11-22T17:42:43;3.90;99.90
3055;DHT22;1537;52.018;8.542;2023-11-22T17:46:07;3.90;99.90
3055;DHT22;1537;52.018;8.542;2023-11-22T17:49:33;3.90;99.90
3055;DHT22;1537;52.018;8.542;2023-11-22T17:52:57;4.00;99.90
3055;DHT22;1537;52.018;8.542;2023-11-22T17:56:22;4.00;99.90
3055;DHT22;1537;52.018;8.542;2023-11-22T17:59:46;4.00;99.90
3055;DHT22;1537;52.018;8.542;2023-11-22T18:03:10;4.00;99.90
3055;DHT22;1537;52.018;8.542;2023-11-22T18:06:35;4.10;99.90
3055;DHT22;1537;52.018;8.542;2023-11-22T18:10:02;4.10;99.90
3055;DHT22;1537;52.018;8.542;2023-11-22T18:13:27;4.10;99.90
3055;DHT22;1537;52.018;8.542;2023-11-22T18:16:51;4.20;99.90
3055;DHT22;1537;52.018;8.542;2023-11-22T18:20:15;4.20;99.90
3055;DHT22;1537;52.018;8.542;2023-11-22T18:23:40;4.20;99.90
3055;DHT22;1537;52.018;8.542;2023-11-22T18:27:07;4.20;99.90
3055;DHT22;1537;52.018;8.542;2023-11-22T18:30:31;4.20;99.90
3055;DHT22;1537;52.018;8.542;2023-11-22T18:33:55;4.30;99.90
3055;DHT22;1537;52.018;8.542;2023-11-22T18:37:19;4.40;99.90
3055;DHT22;1537;52.018;8.542;2023-11-22T18:40:44;4.30;99.90
3055;DHT22;1537;52.018;8.542;2023-11-22T18:44:09;4.30;99.90
3055;DHT22;1537;52.018;8.542;2023-11-22T18:47:33;4.30;99.90
3055;DHT22;1537;52.018;8.542;2023-11-22T18:50:58;4.20;99.90
3055;DHT22;1537;52.018;8.542;2023-11-22T18:54:21;4.20;99.90
3055;DHT22;1537;52.018;8.542;2023-11-22T18:57:46;4.10;99.90
3055;DHT22;1537;52.018;8.542;2023-11-22T19:01:10;4.20;99.90
3055;DHT22;1537;52.018;8.542;2023-11-22T19:04:34;4.20;99.90
3055;DHT22;1537;52.018;8.542;2023-11-22T19:07:59;4.10;99.90
3055;DHT22;1537;52.018;8.542;2023-11-22T19:11:23;4.10;99.90
3055;DHT22;1537;52.018;8.542;2023-11-22T19:14:48;4.10;99.90
3055;DHT22;1537;52.018;8.542;2023-11-22T19:18:12;4.10;99.90
3055;DHT22;1537;52.018;8.542;2023-11-22T19:21:36;4.10;99.90
3055;DHT22;1537;52.018;8.542;2023-11-22T19:25:00;4.20;99.90
3055;DHT22;1537;52.018;8.542;2023-11-22T19:28:23;4.30;99.90
3055;DHT22;1537;52.018;8.542;2023-11-22T19:31:48;4.30;99.90
3055;DHT22;1537;52.018;8.542;2023-11-22T19:35:12;4.30;99.90
3055;DHT22;1537;52.018;8.542;2023-11-22T19:38:37;4.30;99.90
3055;DHT22;1537;52.018;8.542;2023-11-22T19:42:02;4.20;99.90
3055;DHT22;1537;52.018;8.542;2023-11-22T19:45:26;4.20;99.90
3055;DHT22;1537;52.018;8.542;2023-11-22T19:48:52;4.20;99.90
3055;DHT22;1537;52.018;8.542;2023-11-22T19:52:17;4.20;99.90
3055;DHT22;1537;52.018;8.542;2023-11-22T19:55:44;4.20;99.90
3055;DHT22;1537;52.018;8.542;2023-11-22T19:59:11;4.20;99.90
3055;DHT22;1537;52.018;8.542;2023-11-22T20:02:36;4.10;99.90
3055;DHT22;1537;52.018;8.542;2023-11-22T20:06:05;4.20;99.90
3055;DHT22;1537;52.018;8.542;2023-11-22T20:09:32;4.20;99.90
3055;DHT22;1537;52.018;8.542;2023-11-22T20:12:57;4.20;99.90
3055;DHT22;1537;52.018;8.542;2023-11-22T20:16:21;4.20;99.90
3055;DHT22;1537;52.018;8.542;2023-11-22T20:19:50;4.20;99.90
3055;DHT22;1537;52.018;8.542;2023-11-22T20:23:16;4.20;99.90
3055;DHT22;1537;52.018;8.542;2023-11-22T20:26:46;4.30;99.90
3055;DHT22;1537;52.018;8.542;2023-11-22T20:30:11;4.30;99.90
3055;DHT22;1537;52.018;8.542;2023-11-22T20:33:37;4.40;99.90
3055;DHT22;1537;52.018;8.542;2023-11-22T20:37:01;4.40;99.90
3055;DHT22;1537;52.018;8.542;2023-11-22T20:40:26;4.40;99.90
3055;DHT22;1537;52.018;8.542;2023-11-22T20:43:53;4.40;99.90
3055;DHT22;1537;52.018;8.542;2023-11-22T20:47:18;4.50;99.90
3055;DHT22;1537;52.018;8.542;2023-11-22T20:50:42;4.60;99.90
3055;DHT22;1537;52.018;8.542;2023-11-22T20:54:09;4.60;99.90
3055;DHT22;1537;52.018;8.542;2023-11-22T20:57:39;4.70;99.90
3055;DHT22;1537;52.018;8.542;2023-11-22T21:01:06;4.70;99.90
3055;DHT22;1537;52.018;8.542;2023-11-22T21:04:33;4.80;99.90
3055;DHT22;1537;52.018;8.542;2023-11-22T21:07:57;4.90;99.90
3055;DHT22;1537;52.018;8.542;2023-11-22T21:11:29;4.90;99.90
3055;DHT22;1537;52.018;8.542;2023-11-22T21:14:55;5.00;99.90
3055;DHT22;1537;52.018;8.542;2023-11-22T21:18:22;5.10;99.90
3055;DHT22;1537;52.018;8.542;2023-11-22T21:21:48;5.00;99.90
3055;DHT22;1537;52.018;8.542;2023-11-22T21:25:24;5.10;99.90
3055;DHT22;1537;52.018;8.542;2023-11-22T21:28:52;5.10;99.90
3055;DHT22;1537;52.018;8.542;2023-11-22T21:32:19;5.10;99.90
3055;DHT22;1537;52.018;8.542;2023-11-22T21:35:47;5.10;99.90
3055;DHT22;1537;52.018;8.542;2023-11-22T21:39:15;5.10;99.90
3055;DHT22;1537;52.018;8.542;2023-11-22T21:42:45;5.10;99.90
3055;DHT22;1537;52.018;8.542;2023-11-22T21:46:15;5.20;99.90
3055;DHT22;1537;52.018;8.542;2023-11-22T21:49:43;5.20;99.90
3055;DHT22;1537;52.018;8.542;2023-11-22T21:53:07;5.30;99.90
3055;DHT22;1537;52.018;8.542;2023-11-22T21:56:31;5.20;99.90
3055;DHT22;1537;52.018;8.542;2023-11-22T22:00:01;5.30;99.90
3055;DHT22;1537;52.018;8.542;2023-11-22T22:03:27;5.30;99.90
3055;DHT22;1537;52.018;8.542;2023-11-22T22:06:52;5.30;99.90
3055;DHT22;1537;52.018;8.542;2023-11-22T22:10:16;5.30;99.90
3055;DHT22;1537;52.018;8.542;2023-11-22T22:13:40;5.40;99.90
3055;DHT22;1537;52.018;8.542;2023-11-22T22:17:05;5.40;99.90
3055;DHT22;1537;52.018;8.542;2023-11-22T22:20:29;5.40;99.90
3055;DHT22;1537;52.018;8.542;2023-11-22T22:24:09;5.50;99.90
3055;DHT22;1537;52.018;8.542;2023-11-22T22:27:34;5.50;99.90
3055;DHT22;1537;52.018;8.542;2023-11-22T22:30:58;5.50;99.90
3055;DHT22;1537;52.018;8.542;2023-11-22T22:34:23;5.50;99.90
3055;DHT22;1537;52.018;8.542;2023-11-22T22:37:47;5.60;99.90
3055;DHT22;1537;52.018;8.542;2023-11-22T22:41:17;5.50;99.90
3055;DHT22;1537;52.018;8.542;2023-11-22T22:44:41;5.50;99.90